Time;durP1;ratioP1;P1;durP2;ratioP2;P2;SDS_P1;SDS_P2;PMS_P1;PMS_P2;Temp;Humidity;BMP_temperature;BMP_pressure;BME280_temperature;BME280_humidity;BME280_pressure;Samples;Min_cycle;Max_cycle;Signal;HPM_P1;HPM_P2
2024/01/25 00:00:15;;;;;;;10.80;3.10;;;;;;;5.64;73.82;98563.20;105661;1260;97886;-85
2024/01/25 00:03:03;;;;;;;6.70;3.00;;;;;;;5.64;73.66;98567.98;105746;1256;112910;-83
2024/01/25 00:05:31;;;;;;;7.20;2.90;;;;;;;5.64;73.82;98562.88;104986;1261;97794;-84
2024/01/25 00:07:59;;;;;;;10.40;3.90;;;;;;;5.66;73.80;98564.54;105462;1260;106383;-85
2024/01/25 00:10:26;;;;;;;9.20;3.60;;;;;;;5.68;73.90;98561.63;105336;1260;96623;-85
2024/01/25 00:12:54;;;;;;;9.70;2.80;;;;;;;5.69;73.86;98560.52;105173;1272;96619;-84
2024/01/25 00:15:22;;;;;;;8.90;3.00;;;;;;;5.69;73.92;98561.54;105064;1260;110588;-85
2024/01/25 00:17:50;;;;;;;8.90;3.50;;;;;;;5.70;73.92;98559.77;104962;1256;97543;-85
2024/01/25 00:20:18;;;;;;;8.50;4.20;;;;;;;5.70;73.86;98561.66;105264;1260;106699;-83
2024/01/25 00:22:46;;;;;;;8.10;3.10;;;;;;;5.72;73.82;98554.48;105158;1262;96652;-84
2024/01/25 00:25:14;;;;;;;7.70;3.00;;;;;;;5.73;73.82;98554.05;105141;1257;96607;-84
2024/01/25 00:27:44;;;;;;;6.70;2.60;;;;;;;5.75;73.93;98566.29;105107;1259;110521;-86
2024/01/25 00:30:13;;;;;;;10.60;3.90;;;;;;;5.76;73.65;98563.41;105550;1259;96598;-82
2024/01/25 00:32:40;;;;;;;10.40;3.00;;;;;;;5.78;73.80;98560.44;104793;1260;106970;-84
2024/01/25 00:35:10;;;;;;;11.10;3.90;;;;;;;5.78;73.81;98559.89;105489;1257;96613;-85
2024/01/25 00:37:39;;;;;;;8.40;3.80;;;;;;;5.78;73.56;98552.52;105268;1257;96698;-84
2024/01/25 00:40:08;;;;;;;9.30;3.30;;;;;;;5.77;73.73;98550.66;105589;1260;109386;-85
2024/01/25 00:42:53;;;;;;;11.10;3.70;;;;;;;5.76;73.64;98549.15;107293;1257;97883;-84
2024/01/25 00:45:23;;;;;;;8.80;2.60;;;;;;;5.74;73.57;98547.02;108077;1256;107630;-77
2024/01/25 00:47:51;;;;;;;11.90;3.10;;;;;;;5.75;73.74;98541.64;106191;1257;97921;-88
2024/01/25 00:50:21;;;;;;;8.60;2.90;;;;;;;5.78;73.58;98534.06;105570;1256;96619;-78
2024/01/25 00:52:52;;;;;;;6.30;2.80;;;;;;;5.80;73.67;98533.81;105307;1259;109899;-84
2024/01/25 00:55:20;;;;;;;6.50;2.60;;;;;;;5.80;73.56;98538.14;104831;1260;97471;-80
2024/01/25 00:57:49;;;;;;;6.10;2.30;;;;;;;5.83;73.28;98530.45;105279;1262;107725;-81
2024/01/25 01:00:18;;;;;;;6.50;2.40;;;;;;;5.88;73.04;98544.58;105197;1259;96637;-81
2024/01/25 01:02:47;;;;;;;10.70;2.80;;;;;;;5.89;73.05;98556.42;105211;1257;96598;-85
2024/01/25 01:05:16;;;;;;;5.90;2.30;;;;;;;5.87;72.98;98568.17;105855;1260;109920;-85
2024/01/25 01:07:44;;;;;;;7.00;3.20;;;;;;;5.81;73.30;98585.27;105838;1259;97813;-84
2024/01/25 01:10:14;;;;;;;6.30;2.70;;;;;;;5.74;73.60;98593.27;105773;1257;106676;-78
2024/01/25 01:12:42;;;;;;;5.60;2.20;;;;;;;5.69;73.46;98591.61;106344;1257;96635;-84
2024/01/25 01:15:10;;;;;;;8.50;2.80;;;;;;;5.68;73.51;98592.41;104872;1261;96608;-85
2024/01/25 01:17:38;;;;;;;8.40;3.10;;;;;;;5.63;73.50;98597.07;105438;1258;109938;-77
2024/01/25 01:20:06;;;;;;;5.70;2.20;;;;;;;5.59;73.54;98596.06;104938;1260;97652;-85
2024/01/25 01:22:34;;;;;;;6.70;2.30;;;;;;;5.57;73.72;98603.09;105208;1260;107623;-85
2024/01/25 01:25:02;;;;;;;6.50;2.00;;;;;;;5.53;73.72;98602.80;105295;1260;97914;-88
2024/01/25 01:27:30;;;;;;;9.40;2.80;;;;;;;5.47;74.15;98586.75;105305;1258;96681;-83
2024/01/25 01:29:59;;;;;;;6.60;2.70;;;;;;;5.40;74.37;98574.70;105294;1256;108659;-84
2024/01/25 01:32:26;;;;;;;8.00;2.60;;;;;;;5.33;74.37;98566.66;104936;1256;96568;-85
2024/01/25 01:34:54;;;;;;;6.20;2.30;;;;;;;5.27;74.32;98587.23;105047;1259;107633;-84
2024/01/25 01:37:22;;;;;;;8.80;2.60;;;;;;;5.25;74.70;98577.89;105496;1258;96698;-84
2024/01/25 01:39:52;;;;;;;7.30;2.80;;;;;;;5.21;74.73;98580.89;105266;1260;96715;-84
2024/01/25 01:42:20;;;;;;;16.20;2.80;;;;;;;5.15;74.89;98571.02;105045;1258;109399;-82
2024/01/25 01:44:50;;;;;;;6.60;2.60;;;;;;;5.11;75.06;98563.05;105028;1257;97553;-80
2024/01/25 01:47:18;;;;;;;7.30;2.70;;;;;;;5.05;75.20;98553.86;105320;1260;108265;-85
2024/01/25 01:49:47;;;;;;;5.00;2.60;;;;;;;5.02;75.17;98550.16;105479;1260;96630;-84
2024/01/25 01:52:17;;;;;;;7.30;2.70;;;;;;;4.99;75.39;98546.67;105520;1257;96597;-84
2024/01/25 01:54:47;;;;;;;5.00;2.00;;;;;;;4.94;75.58;98539.74;105901;1257;110623;-81
2024/01/25 01:57:15;;;;;;;6.10;2.40;;;;;;;4.94;75.48;98541.69;105375;1260;96659;-85
2024/01/25 01:59:43;;;;;;;5.80;2.50;;;;;;;4.96;75.52;98534.89;105360;1261;107661;-77
2024/01/25 02:02:11;;;;;;;6.30;2.60;;;;;;;4.98;75.52;98527.92;105907;1256;96725;-82
2024/01/25 02:04:39;;;;;;;10.80;3.00;;;;;;;5.02;75.59;98530.00;105038;1257;97918;-76
2024/01/25 02:07:07;;;;;;;6.50;2.40;;;;;;;5.05;75.62;98532.78;105178;1259;109846;-82
2024/01/25 02:09:35;;;;;;;9.70;3.50;;;;;;;5.10;75.69;98537.06;105033;1260;96517;-85
2024/01/25 02:12:04;;;;;;;7.10;2.70;;;;;;;5.12;75.61;98537.67;105556;1259;107625;-80
2024/01/25 02:14:31;;;;;;;8.30;2.50;;;;;;;5.13;75.69;98539.55;105753;1260;97920;-83
2024/01/25 02:16:59;;;;;;;6.80;3.10;;;;;;;5.13;75.65;98534.76;105528;1257;96594;-84
2024/01/25 02:19:27;;;;;;;6.60;2.10;;;;;;;5.13;75.67;98534.44;105428;1261;110512;-85
2024/01/25 02:21:58;;;;;;;11.60;2.60;;;;;;;5.11;75.92;98547.18;108053;1256;95710;-83
2024/01/25 02:24:26;;;;;;;5.60;2.10;;;;;;;5.09;75.87;98538.16;105152;1259;108490;-82
2024/01/25 02:26:54;;;;;;;8.90;2.90;;;;;;;5.08;75.95;98528.77;104967;1261;96702;-84
2024/01/25 02:29:22;;;;;;;7.90;2.30;;;;;;;5.06;75.92;98528.15;104957;1258;96551;-79
2024/01/25 02:31:50;;;;;;;7.30;2.60;;;;;;;5.03;75.95;98527.98;105490;1258;109823;-85
2024/01/25 02:34:18;;;;;;;7.40;2.20;;;;;;;5.02;76.05;98523.09;105511;1260;96601;-82
2024/01/25 02:36:46;;;;;;;7.50;2.20;;;;;;;5.02;76.12;98524.86;105990;1259;107791;-84
2024/01/25 02:39:14;;;;;;;4.20;2.10;;;;;;;5.00;76.15;98527.45;105364;1260;96623;-79
2024/01/25 02:41:42;;;;;;;4.80;2.10;;;;;;;4.99;76.12;98536.84;105181;1260;96530;-82
2024/01/25 02:44:11;;;;;;;4.40;1.80;;;;;;;4.99;76.15;98539.46;105477;1256;109595;-83
2024/01/25 02:46:39;;;;;;;6.40;1.80;;;;;;;5.00;76.22;98535.33;105021;1262;96593;-82
2024/01/25 02:49:06;;;;;;;4.80;2.40;;;;;;;5.00;76.19;98539.39;106140;1256;107625;-84
2024/01/25 02:51:34;;;;;;;6.40;2.50;;;;;;;4.99;76.29;98532.45;105296;1260;97890;-79
2024/01/25 02:54:02;;;;;;;5.50;2.50;;;;;;;4.96;76.32;98532.58;105265;1259;96664;-84
2024/01/25 02:56:34;;;;;;;4.50;1.80;;;;;;;4.94;76.43;98540.60;105562;1260;109950;-82
2024/01/25 02:59:02;;;;;;;8.80;2.10;;;;;;;4.93;76.48;98545.96;105381;1262;96562;-83
2024/01/25 03:01:44;;;;;;;6.80;2.00;;;;;;;4.89;76.54;98548.96;105151;1261;107127;-85
2024/01/25 03:04:12;;;;;;;6.60;2.10;;;;;;;4.85;76.64;98549.21;105327;1260;96619;-83
2024/01/25 03:06:40;;;;;;;5.10;2.50;;;;;;;4.82;76.82;98554.83;105454;1260;96571;-84
2024/01/25 03:09:08;;;;;;;13.40;1.90;;;;;;;4.76;76.98;98561.09;105222;1260;110608;-78
2024/01/25 03:11:36;;;;;;;6.20;2.10;;;;;;;4.73;77.26;98552.70;105401;1260;96582;-83
2024/01/25 03:14:04;;;;;;;5.30;2.00;;;;;;;4.69;77.43;98555.58;105373;1262;107647;-85
2024/01/25 03:16:32;;;;;;;7.80;2.20;;;;;;;4.65;77.61;98556.87;105444;1259;96616;-83
2024/01/25 03:19:00;;;;;;;16.60;2.00;;;;;;;4.62;77.71;98557.86;105611;1256;96700;-83
2024/01/25 03:21:29;;;;;;;4.80;1.90;;;;;;;4.61;77.84;98559.37;105155;1260;109873;-83
2024/01/25 03:23:57;;;;;;;6.10;2.20;;;;;;;4.59;77.96;98557.55;105863;1258;96517;-86
2024/01/25 03:26:27;;;;;;;9.50;2.10;;;;;;;4.58;78.06;98551.94;105455;1261;107784;-82
2024/01/25 03:28:55;;;;;;;9.70;2.80;;;;;;;4.57;78.32;98538.50;105948;1256;96603;-83
2024/01/25 03:31:23;;;;;;;7.10;1.90;;;;;;;4.55;78.36;98534.40;105815;1258;96562;-80
2024/01/25 03:33:51;;;;;;;4.60;1.80;;;;;;;4.53;78.57;98532.94;106160;1260;107902;-84
2024/01/25 03:36:19;;;;;;;3.80;1.90;;;;;;;4.54;78.44;98532.33;106637;1258;97528;-79
2024/01/25 03:38:47;;;;;;;7.50;2.20;;;;;;;4.56;78.49;98526.25;105165;1272;107665;-84
2024/01/25 03:41:14;;;;;;;4.00;1.80;;;;;;;4.57;78.47;98528.13;105224;1260;97531;-84
2024/01/25 03:43:42;;;;;;;7.10;2.30;;;;;;;4.58;78.55;98525.08;105412;1262;96589;-85
2024/01/25 03:46:12;;;;;;;4.20;1.70;;;;;;;4.61;78.52;98526.86;105640;1259;108823;-85
2024/01/25 03:48:40;;;;;;;5.00;1.60;;;;;;;4.64;78.44;98532.16;105551;1260;96620;-84
2024/01/25 03:51:09;;;;;;;7.10;2.20;;;;;;;4.66;78.36;98526.41;105596;1256;107664;-87
2024/01/25 03:53:36;;;;;;;5.40;1.80;;;;;;;4.68;78.36;98528.77;105554;1257;96625;-85
2024/01/25 03:56:11;;;;;;;5.80;2.10;;;;;;;4.68;78.36;98529.48;106129;1259;97935;-83
2024/01/25 03:58:39;;;;;;;6.80;2.10;;;;;;;4.71;78.23;98526.49;107771;1256;109984;-81
2024/01/25 04:01:07;;;;;;;2.60;1.60;;;;;;;4.74;78.01;98526.50;106472;1256;97092;-86
2024/01/25 04:03:36;;;;;;;7.30;1.70;;;;;;;4.78;77.78;98529.93;105552;1258;107206;-84
2024/01/25 04:06:04;;;;;;;10.00;2.30;;;;;;;4.81;77.55;98526.09;106051;1256;97938;-86
2024/01/25 04:08:32;;;;;;;6.80;2.20;;;;;;;4.84;77.44;98533.10;105068;1259;97315;-84
2024/01/25 04:11:00;;;;;;;4.00;1.70;;;;;;;4.85;77.35;98538.14;105181;1261;110108;-77
2024/01/25 04:13:27;;;;;;;8.50;1.40;;;;;;;4.86;77.12;98545.48;104915;1260;96617;-82
2024/01/25 04:15:55;;;;;;;4.60;1.70;;;;;;;4.86;77.03;98546.71;105505;1256;108335;-84
2024/01/25 04:18:23;;;;;;;3.70;1.20;;;;;;;4.86;76.94;98547.61;105366;1259;96609;-84
2024/01/25 04:20:51;;;;;;;3.10;1.10;;;;;;;4.84;76.86;98549.27;105146;1257;96609;-82
2024/01/25 04:23:19;;;;;;;1.90;1.10;;;;;;;4.81;76.83;98552.95;105144;1261;109416;-84
2024/01/25 04:25:48;;;;;;;2.60;1.40;;;;;;;4.78;76.77;98549.95;105438;1260;96546;-76
2024/01/25 04:28:16;;;;;;;4.40;1.20;;;;;;;4.74;76.80;98544.94;105570;1258;107644;-85
2024/01/25 04:30:44;;;;;;;5.10;1.80;;;;;;;4.68;76.88;98555.63;105623;1258;96602;-81
2024/01/25 04:33:12;;;;;;;6.60;2.30;;;;;;;4.64;76.99;98558.84;105186;1257;97398;-85
2024/01/25 04:35:40;;;;;;;3.80;1.30;;;;;;;4.60;77.00;98556.41;105550;1259;109941;-85
2024/01/25 04:38:08;;;;;;;6.40;1.70;;;;;;;4.54;77.13;98548.14;104962;1262;97823;-83
2024/01/25 04:40:36;;;;;;;3.70;1.50;;;;;;;4.52;77.12;98547.94;106179;1256;106278;-84
2024/01/25 04:43:04;;;;;;;4.00;1.80;;;;;;;4.49;77.31;98544.42;105816;1256;96621;-82
2024/01/25 04:45:32;;;;;;;6.90;2.20;;;;;;;4.45;77.29;98541.30;105637;1257;96608;-85
2024/01/25 04:48:00;;;;;;;6.60;2.10;;;;;;;4.42;77.39;98536.67;106272;1258;110137;-81
2024/01/25 04:50:28;;;;;;;6.60;1.80;;;;;;;4.41;77.36;98534.47;105510;1257;96596;-86
2024/01/25 04:52:56;;;;;;;3.30;1.60;;;;;;;4.39;77.44;98534.74;105638;1256;107163;-80
2024/01/25 04:55:24;;;;;;;6.20;2.20;;;;;;;4.39;77.45;98540.40;105989;1260;96611;-83
2024/01/25 04:57:53;;;;;;;3.30;1.60;;;;;;;4.37;77.53;98536.08;105576;1259;96594;-76
2024/01/25 05:00:22;;;;;;;5.70;1.70;;;;;;;4.37;77.49;98544.34;107822;1257;110992;-75
2024/01/25 05:02:50;;;;;;;10.30;2.00;;;;;;;4.37;77.53;98542.58;106265;1259;97550;-75
2024/01/25 05:05:18;;;;;;;8.40;2.30;;;;;;;4.36;77.60;98544.10;105144;1260;108102;-78
2024/01/25 05:07:46;;;;;;;9.70;1.50;;;;;;;4.35;77.63;98547.30;105098;1261;97918;-78
2024/01/25 05:10:14;;;;;;;7.20;2.20;;;;;;;4.35;77.58;98553.61;107406;1259;97930;-77
2024/01/25 05:12:43;;;;;;;8.40;1.90;;;;;;;4.35;77.47;98549.37;105061;1262;110089;-77
2024/01/25 05:15:11;;;;;;;7.10;2.10;;;;;;;4.34;77.54;98550.11;105814;1259;96608;-79
2024/01/25 05:17:39;;;;;;;4.10;1.70;;;;;;;4.35;77.64;98548.34;105302;1261;108152;-78
2024/01/25 05:20:08;;;;;;;6.50;1.90;;;;;;;4.34;77.56;98559.23;105277;1259;97928;-76
2024/01/25 05:22:40;;;;;;;6.10;1.90;;;;;;;4.37;77.42;98553.67;108176;1256;95243;-85
2024/01/25 05:25:08;;;;;;;4.40;1.30;;;;;;;4.37;77.38;98553.98;108110;1257;110039;-87
2024/01/25 05:27:36;;;;;;;7.90;2.10;;;;;;;4.37;77.51;98550.52;105417;1261;96521;-90
2024/01/25 05:30:04;;;;;;;7.50;2.80;;;;;;;4.37;77.33;98554.02;108097;1256;107615;-87
2024/01/25 05:32:32;;;;;;;5.20;1.50;;;;;;;4.41;77.17;98557.83;107257;1256;96547;-79
2024/01/25 05:35:00;;;;;;;7.20;2.10;;;;;;;4.43;77.22;98558.06;105226;1260;97528;-86
2024/01/25 05:37:29;;;;;;;6.50;2.00;;;;;;;4.45;76.98;98556.02;108332;1259;109923;-89
2024/01/25 05:39:56;;;;;;;7.20;3.20;;;;;;;4.45;76.97;98557.77;108385;1256;95466;-87
2024/01/25 05:42:24;;;;;;;4.60;2.30;;;;;;;4.45;76.68;98558.83;106296;1259;106709;-81
2024/01/25 05:44:52;;;;;;;6.70;1.80;;;;;;;4.48;76.49;98566.95;105618;1260;96596;-85
2024/01/25 05:47:21;;;;;;;5.60;2.10;;;;;;;4.52;76.59;98553.02;106313;1257;97928;-84
2024/01/25 05:49:48;;;;;;;9.50;2.30;;;;;;;4.54;76.45;98555.20;108043;1256;108927;-82
2024/01/25 05:52:17;;;;;;;6.60;2.00;;;;;;;4.54;76.30;98557.64;105388;1257;96595;-83
2024/01/25 05:54:45;;;;;;;6.40;1.90;;;;;;;4.55;76.21;98553.55;108338;1256;107615;-80
2024/01/25 05:57:13;;;;;;;4.40;1.70;;;;;;;4.55;76.22;98556.33;106953;1259;96591;-84
2024/01/25 05:59:40;;;;;;;6.90;1.80;;;;;;;4.57;76.07;98554.30;105403;1259;96539;-82
2024/01/25 06:02:09;;;;;;;9.60;2.20;;;;;;;4.58;76.08;98551.08;105754;1256;109453;-80
2024/01/25 06:04:37;;;;;;;9.70;2.50;;;;;;;4.59;75.93;98546.45;108272;1257;95720;-82
2024/01/25 06:07:05;;;;;;;4.50;1.80;;;;;;;4.60;75.92;98551.31;108285;1256;108204;-77
2024/01/25 06:09:33;;;;;;;6.20;2.10;;;;;;;4.61;75.90;98546.16;106874;1257;96512;-75
2024/01/25 06:12:01;;;;;;;7.30;2.30;;;;;;;4.63;75.79;98547.82;108276;1257;94457;-75
2024/01/25 06:14:29;;;;;;;8.20;2.50;;;;;;;4.64;75.69;98545.48;108350;1256;109513;-76
2024/01/25 06:16:57;;;;;;;5.50;2.20;;;;;;;4.65;75.73;98541.77;108354;1256;95200;-75
2024/01/25 06:19:24;;;;;;;9.50;2.70;;;;;;;4.64;75.75;98539.00;105923;1260;107500;-75
2024/01/25 06:21:52;;;;;;;6.00;2.50;;;;;;;4.63;75.46;98546.24;108247;1257;94742;-75
2024/01/25 06:24:20;;;;;;;7.70;3.00;;;;;;;4.63;75.45;98548.52;108320;1256;94362;-76
2024/01/25 06:26:48;;;;;;;5.50;2.00;;;;;;;4.67;75.45;98542.52;106903;1256;109756;-76
2024/01/25 06:29:16;;;;;;;11.40;2.90;;;;;;;4.69;75.32;98544.67;105829;1260;96696;-77
2024/01/25 06:31:45;;;;;;;5.10;2.10;;;;;;;4.71;75.37;98546.66;105311;1256;106445;-77
2024/01/25 06:34:12;;;;;;;5.70;2.60;;;;;;;4.74;75.34;98551.61;106435;1260;96664;-79
2024/01/25 06:36:41;;;;;;;9.60;3.10;;;;;;;4.74;75.05;98551.77;107081;1259;96620;-75
2024/01/25 06:39:09;;;;;;;9.10;2.30;;;;;;;4.75;74.83;98552.79;104967;1256;109935;-75
2024/01/25 06:41:37;;;;;;;10.90;2.40;;;;;;;4.75;74.87;98555.74;105251;1261;97268;-71
2024/01/25 06:44:04;;;;;;;7.80;3.40;;;;;;;4.76;74.40;98557.27;105293;1256;107037;-76
2024/01/25 06:46:32;;;;;;;8.30;2.50;;;;;;;4.79;74.30;98555.16;106111;1257;97927;-77
2024/01/25 06:49:00;;;;;;;8.40;2.50;;;;;;;4.83;74.04;98553.23;105143;1262;96577;-77
2024/01/25 06:51:28;;;;;;;7.80;3.00;;;;;;;4.86;73.73;98550.05;105317;1261;109908;-76
2024/01/25 06:53:56;;;;;;;7.10;2.40;;;;;;;4.87;73.48;98549.61;107853;1257;95504;-76
2024/01/25 06:56:24;;;;;;;9.90;2.90;;;;;;;4.89;73.51;98549.70;107827;1255;107329;-75
2024/01/25 06:58:52;;;;;;;8.40;2.60;;;;;;;4.90;73.38;98543.98;105420;1262;96681;-76
2024/01/25 07:01:21;;;;;;;4.90;1.80;;;;;;;4.92;73.22;98555.32;105979;1260;96612;-79
2024/01/25 07:03:50;;;;;;;4.20;1.90;;;;;;;4.93;72.96;98553.87;105364;1257;110546;-77
2024/01/25 07:06:19;;;;;;;8.60;2.80;;;;;;;4.93;72.56;98556.66;105704;1260;96604;-76
2024/01/25 07:08:47;;;;;;;7.60;2.50;;;;;;;4.98;72.49;98551.13;105548;1256;107632;-78
2024/01/25 07:11:16;;;;;;;10.10;2.30;;;;;;;5.02;72.23;98553.52;107050;1259;96623;-75
2024/01/25 07:13:44;;;;;;;4.10;1.40;;;;;;;5.03;71.97;98550.98;108084;1256;94514;-76
2024/01/25 07:16:12;;;;;;;5.10;1.80;;;;;;;5.04;71.85;98548.30;107426;1260;109771;-75
2024/01/25 07:18:40;;;;;;;5.50;2.30;;;;;;;5.06;71.65;98546.45;108115;1256;95112;-78
2024/01/25 07:21:08;;;;;;;10.50;3.20;;;;;;;5.08;71.60;98551.45;105618;1258;107254;-75
2024/01/25 07:23:36;;;;;;;12.50;4.30;;;;;;;5.09;71.43;98545.23;105141;1262;97844;-76
2024/01/25 07:26:05;;;;;;;12.90;2.70;;;;;;;5.12;71.19;98550.83;106145;1261;96509;-76
2024/01/25 07:28:33;;;;;;;10.00;2.20;;;;;;;5.13;71.25;98549.89;105450;1257;108974;-75
2024/01/25 07:31:01;;;;;;;6.40;2.90;;;;;;;5.13;70.96;98540.75;105365;1260;96542;-75
2024/01/25 07:33:29;;;;;;;4.90;2.30;;;;;;;5.15;70.94;98546.64;106697;1260;107620;-75
2024/01/25 07:35:58;;;;;;;4.20;2.00;;;;;;;5.16;70.84;98541.81;106276;1259;96753;-76
2024/01/25 07:38:26;;;;;;;9.60;2.40;;;;;;;5.18;70.82;98542.55;105289;1260;96805;-76
2024/01/25 07:40:55;;;;;;;5.90;2.20;;;;;;;5.21;70.71;98545.01;105014;1257;109955;-75
2024/01/25 07:43:23;;;;;;;7.30;2.60;;;;;;;5.22;70.55;98544.27;105782;1257;97515;-76
2024/01/25 07:45:51;;;;;;;8.70;2.30;;;;;;;5.24;70.67;98540.45;107706;1260;107201;-75
2024/01/25 07:48:21;;;;;;;5.40;2.50;;;;;;;5.27;70.55;98541.91;106519;1260;97427;-76
2024/01/25 07:50:49;;;;;;;8.50;2.40;;;;;;;5.28;70.52;98546.23;106009;1260;96575;-75
2024/01/25 07:53:17;;;;;;;8.50;2.50;;;;;;;5.29;70.26;98546.32;107143;1260;109043;-75
2024/01/25 07:55:45;;;;;;;8.40;2.30;;;;;;;5.31;70.18;98547.46;105430;1257;96605;-75
2024/01/25 07:58:15;;;;;;;5.50;2.00;;;;;;;5.32;70.09;98558.25;106642;1260;106708;-75
2024/01/25 08:00:43;;;;;;;12.20;2.20;;;;;;;5.35;70.12;98557.77;105403;1259;96682;-77
2024/01/25 08:03:11;;;;;;;5.40;1.50;;;;;;;5.35;70.07;98552.45;105894;1260;96597;-75
2024/01/25 08:05:39;;;;;;;3.70;2.00;;;;;;;5.35;70.08;98562.28;105395;1256;109879;-76
2024/01/25 08:08:17;;;;;;;5.70;2.20;;;;;;;5.34;70.20;98554.27;105299;1260;96628;-77
2024/01/25 08:10:45;;;;;;;6.80;3.00;;;;;;;5.34;70.26;98558.86;107577;1256;107316;-79
2024/01/25 08:13:13;;;;;;;7.90;1.90;;;;;;;5.31;70.37;98560.45;105832;1261;97521;-77
2024/01/25 08:15:41;;;;;;;8.60;2.60;;;;;;;5.29;70.58;98562.17;105209;1260;96534;-79
2024/01/25 08:18:09;;;;;;;8.80;2.40;;;;;;;5.26;70.76;98569.72;105549;1260;109794;-76
2024/01/25 08:20:38;;;;;;;17.80;2.90;;;;;;;5.26;70.88;98557.60;105849;1258;96654;-75
2024/01/25 08:23:08;;;;;;;6.80;2.10;;;;;;;5.22;71.23;98554.31;106258;1259;107626;-80
2024/01/25 08:25:36;;;;;;;8.50;3.00;;;;;;;5.18;71.42;98552.23;105380;1260;96677;-75
2024/01/25 08:28:05;;;;;;;9.20;2.70;;;;;;;5.15;71.44;98551.50;105453;1259;96555;-75
2024/01/25 08:30:33;;;;;;;6.20;2.60;;;;;;;5.16;71.60;98542.86;105507;1256;109035;-76
2024/01/25 08:33:01;;;;;;;6.00;2.80;;;;;;;5.16;71.79;98542.36;105544;1260;96511;-76
2024/01/25 08:35:32;;;;;;;17.80;3.30;;;;;;;5.17;71.86;98536.81;105513;1256;108410;-75
2024/01/25 08:38:01;;;;;;;7.00;2.60;;;;;;;5.20;71.75;98535.06;105376;1261;96683;-77
2024/01/25 08:40:29;;;;;;;11.10;3.30;;;;;;;5.22;71.90;98534.79;105097;1260;96591;-76
2024/01/25 08:42:57;;;;;;;5.40;2.70;;;;;;;5.24;71.97;98533.31;106893;1260;109962;-75
2024/01/25 08:45:25;;;;;;;6.10;3.40;;;;;;;5.24;71.95;98530.78;105274;1261;97493;-75
2024/01/25 08:47:54;;;;;;;11.60;3.00;;;;;;;5.26;71.96;98535.96;106557;1256;107274;-76
2024/01/25 08:50:21;;;;;;;9.10;2.90;;;;;;;5.29;71.96;98538.58;105938;1261;96620;-77
2024/01/25 08:52:54;;;;;;;7.50;2.50;;;;;;;5.32;72.03;98532.58;105573;1260;97563;-75
2024/01/25 08:55:21;;;;;;;7.20;2.60;;;;;;;5.33;72.05;98519.19;105563;1260;109840;-78
2024/01/25 08:57:50;;;;;;;9.00;2.30;;;;;;;5.36;72.17;98527.29;104931;1270;97446;-76
2024/01/25 09:00:19;;;;;;;5.20;2.30;;;;;;;5.35;72.07;98533.83;106394;1257;108031;-75
2024/01/25 09:02:47;;;;;;;4.50;2.50;;;;;;;5.33;72.16;98530.23;106222;1256;96590;-75
2024/01/25 09:05:15;;;;;;;6.50;2.50;;;;;;;5.32;72.24;98535.06;105860;1262;96693;-76
2024/01/25 09:07:43;;;;;;;8.60;3.30;;;;;;;5.32;72.38;98531.39;105374;1262;109875;-77
2024/01/25 09:10:11;;;;;;;7.40;2.40;;;;;;;5.30;72.65;98529.58;105543;1260;96540;-76
2024/01/25 09:12:39;;;;;;;4.80;2.70;;;;;;;5.26;72.88;98533.88;106206;1261;107447;-74
2024/01/25 09:15:08;;;;;;;4.60;2.20;;;;;;;5.21;73.11;98534.85;106794;1256;96625;-76
2024/01/25 09:17:36;;;;;;;7.10;3.00;;;;;;;5.15;73.47;98538.02;106675;1257;96511;-75
2024/01/25 09:20:06;;;;;;;8.10;3.10;;;;;;;5.09;73.68;98538.54;105514;1260;109726;-76
2024/01/25 09:22:35;;;;;;;4.40;2.30;;;;;;;5.03;74.10;98539.23;106295;1259;97560;-80
2024/01/25 09:25:04;;;;;;;9.80;3.20;;;;;;;4.95;74.40;98551.30;105151;1261;105618;-75
2024/01/25 09:27:35;;;;;;;6.80;3.00;;;;;;;4.88;74.69;98556.95;105091;1261;96592;-76
2024/01/25 09:30:05;;;;;;;4.10;2.30;;;;;;;4.80;75.00;98552.13;105548;1259;97544;-74
2024/01/25 09:32:33;;;;;;;8.70;2.60;;;;;;;4.75;75.35;98557.69;106432;1257;109566;-75
2024/01/25 09:35:01;;;;;;;8.80;2.70;;;;;;;4.69;75.63;98564.50;106266;1256;96653;-74
2024/01/25 09:37:29;;;;;;;9.70;3.70;;;;;;;4.65;75.83;98565.80;106094;1256;106183;-75
2024/01/25 09:39:58;;;;;;;5.30;2.60;;;;;;;4.63;75.92;98571.52;105473;1262;96614;-75
2024/01/25 09:42:27;;;;;;;8.30;4.50;;;;;;;4.61;76.10;98567.25;105559;1262;96594;-76
2024/01/25 09:44:55;;;;;;;10.60;5.30;;;;;;;4.60;76.19;98568.35;105933;1260;109546;-76
2024/01/25 09:47:23;;;;;;;5.60;3.10;;;;;;;4.58;76.59;98576.91;105190;1262;96575;-74
2024/01/25 09:49:52;;;;;;;19.80;7.00;;;;;;;4.53;76.74;98584.58;105240;1260;107613;-75
2024/01/25 09:52:25;;;;;;;6.10;3.30;;;;;;;4.50;77.19;98591.93;104961;1262;96584;-75
2024/01/25 09:54:55;;;;;;;6.70;3.30;;;;;;;4.43;77.47;98586.53;106504;1257;96585;-76
2024/01/25 09:57:27;;;;;;;10.20;4.70;;;;;;;4.39;77.58;98585.35;105821;1262;109566;-75
2024/01/25 09:59:55;;;;;;;5.50;2.90;;;;;;;4.38;77.96;98588.19;105899;1256;96623;-76
2024/01/25 10:02:23;;;;;;;6.50;2.90;;;;;;;4.36;78.05;98585.31;107005;1257;107588;-76
2024/01/25 10:04:52;;;;;;;10.50;4.20;;;;;;;4.37;78.25;98588.42;106327;1261;97749;-76
2024/01/25 10:07:47;;;;;;;7.30;3.00;;;;;;;4.35;78.69;98590.80;105665;1261;96626;-79
2024/01/25 10:10:15;;;;;;;7.10;2.60;;;;;;;4.33;78.80;98589.14;105328;1262;108432;-75
2024/01/25 10:12:43;;;;;;;8.70;2.60;;;;;;;4.31;79.12;98590.33;105778;1260;98033;-76
2024/01/25 10:15:11;;;;;;;4.80;2.00;;;;;;;4.30;79.17;98586.33;105593;1259;107569;-77
2024/01/25 10:17:39;;;;;;;3.30;1.90;;;;;;;4.28;79.42;98579.94;106380;1256;96685;-76
2024/01/25 10:20:31;;;;;;;7.30;3.30;;;;;;;4.26;79.72;98583.61;104809;1262;96626;-76
2024/01/25 10:23:00;;;;;;;8.10;3.10;;;;;;;4.23;79.58;98577.04;105209;1261;108334;-74
2024/01/25 10:25:29;;;;;;;7.00;2.70;;;;;;;4.24;79.80;98580.71;105275;1256;97842;-75
2024/01/25 10:27:57;;;;;;;5.80;2.60;;;;;;;4.21;79.77;98575.43;105100;1261;105232;-76
2024/01/25 10:30:27;;;;;;;5.60;2.80;;;;;;;4.21;80.23;98574.02;105308;1262;97791;-75
2024/01/25 10:32:56;;;;;;;7.40;3.30;;;;;;;4.23;80.19;98570.61;105616;1262;98001;-76
2024/01/25 10:35:25;;;;;;;9.50;3.70;;;;;;;4.24;80.55;98572.46;106924;1260;109898;-75
2024/01/25 10:37:55;;;;;;;5.50;2.80;;;;;;;4.26;80.56;98576.58;105757;1257;96774;-78
2024/01/25 10:40:24;;;;;;;12.40;3.90;;;;;;;4.26;80.77;98592.19;106191;1257;107187;-76
2024/01/25 10:42:52;;;;;;;9.80;3.10;;;;;;;4.28;80.58;98575.21;105649;1260;96590;-75
2024/01/25 10:45:20;;;;;;;4.80;2.80;;;;;;;4.29;80.64;98582.34;104910;1260;97237;-76
2024/01/25 10:47:49;;;;;;;8.20;3.40;;;;;;;4.27;80.95;98581.92;105045;1257;109446;-75
2024/01/25 10:50:17;;;;;;;5.90;3.10;;;;;;;4.27;80.79;98588.81;105107;1260;98137;-75
2024/01/25 10:52:46;;;;;;;6.70;3.40;;;;;;;4.26;80.85;98586.71;105302;1261;107439;-75
2024/01/25 10:55:16;;;;;;;10.40;5.40;;;;;;;4.27;81.04;98588.98;105767;1260;96596;-76
2024/01/25 10:57:45;;;;;;;15.20;8.60;;;;;;;4.27;81.36;98595.64;105328;1258;96576;-75
2024/01/25 11:03:34;;;;;;;;;;;;;;;4.30;81.74;98592.80;102449;1295;636042;-75
2024/01/25 11:06:10;;;;;;;6.10;2.60;;;;;;;4.29;81.74;98588.47;104837;1270;94254;-76
2024/01/25 11:08:39;;;;;;;8.70;3.90;;;;;;;4.31;81.69;98589.94;104812;1266;94358;-76
2024/01/25 11:11:10;;;;;;;5.60;3.20;;;;;;;4.33;81.87;98590.76;104905;1269;107888;-75
2024/01/25 11:13:40;;;;;;;3.80;2.70;;;;;;;4.31;81.91;98587.86;104668;1269;94898;-77
2024/01/25 11:16:16;;;;;;;7.60;3.00;;;;;;;4.30;82.05;98588.27;104801;1267;120737;-76
2024/01/25 11:18:52;;;;;;;5.80;3.80;;;;;;;4.29;82.02;98593.23;105429;1257;94300;-75
2024/01/25 11:21:23;;;;;;;8.70;4.00;;;;;;;4.32;82.31;98587.81;105859;1257;94444;-76
2024/01/25 11:24:01;;;;;;;7.00;3.70;;;;;;;4.35;82.33;98588.73;105429;1259;107265;-74
2024/01/25 11:26:32;;;;;;;;;;;;;;;4.39;82.44;98587.96;105770;1257;94366;-76
2024/01/25 11:29:00;;;;;;;8.20;3.10;;;;;;;4.40;82.83;98583.36;105913;1253;107630;-75
2024/01/25 11:31:28;;;;;;;10.40;5.30;;;;;;;4.40;82.60;98582.63;105879;1255;96172;-76
2024/01/25 11:34:01;;;;;;;24.10;8.20;;;;;;;4.43;82.72;98586.35;106490;1252;95242;-75
2024/01/25 11:36:29;;;;;;;5.50;3.10;;;;;;;4.44;82.80;98590.48;105661;1254;108595;-76
2024/01/25 11:38:57;;;;;;;8.60;3.80;;;;;;;4.47;82.94;98582.27;105262;1259;96458;-76